createdAt,value
2018-03-22T00:02:03.688Z,0.80
2018-03-22T00:04:32.000Z,0.81
2018-03-22T00:07:00.376Z,0.80
2018-03-22T00:09:29.070Z,0.84
2018-03-22T00:11:58.039Z,0.87
2018-03-22T00:14:27.364Z,0.89
2018-03-22T00:16:56.530Z,0.90
2018-03-22T00:19:24.884Z,0.90
2018-03-22T00:21:54.018Z,0.89
2018-03-22T00:24:22.322Z,0.89
2018-03-22T00:26:50.653Z,0.88
2018-03-22T00:29:19.020Z,0.89
2018-03-22T00:31:48.103Z,0.92
2018-03-22T00:34:16.436Z,0.91
2018-03-22T00:36:44.773Z,0.96
2018-03-22T00:39:13.185Z,0.96
2018-03-22T00:41:41.515Z,1.01
2018-03-22T00:44:10.631Z,1.05
2018-03-22T00:46:38.943Z,1.07
2018-03-22T00:49:07.289Z,1.05
2018-03-22T00:51:35.637Z,1.08
2018-03-22T00:54:03.937Z,1.05
2018-03-22T00:56:32.251Z,1.05
2018-03-22T00:59:01.907Z,1.10
2018-03-22T01:01:31.103Z,1.15
2018-03-22T01:04:00.878Z,1.14
2018-03-22T01:06:29.232Z,1.10
2018-03-22T01:08:57.564Z,1.10
2018-03-22T01:11:26.639Z,1.10
2018-03-22T01:13:54.998Z,1.05
2018-03-22T01:16:23.308Z,1.10
2018-03-22T01:18:52.391Z,1.12
2018-03-22T01:21:20.748Z,1.10
2018-03-22T01:23:49.102Z,1.10
2018-03-22T01:26:17.437Z,1.10
2018-03-22T01:28:46.551Z,1.13
2018-03-22T01:31:15.671Z,1.05
2018-03-22T01:33:44.390Z,1.01
2018-03-22T01:36:12.698Z,0.97
2018-03-22T01:38:41.854Z,0.96
2018-03-22T01:41:10.143Z,0.91
2018-03-22T01:43:38.850Z,0.90
2018-03-22T01:46:08.782Z,0.90
2018-03-22T01:48:37.401Z,0.91
2018-03-22T01:51:05.805Z,0.91
2018-03-22T01:53:34.116Z,0.88
2018-03-22T01:56:03.233Z,0.85
2018-03-22T01:58:31.574Z,0.85
2018-03-22T02:00:59.923Z,0.78
2018-03-22T02:03:28.216Z,0.69
2018-03-22T02:05:56.538Z,0.59
2018-03-22T02:08:24.878Z,0.50
2018-03-22T02:10:53.210Z,0.40
2018-03-22T02:13:21.531Z,0.30
2018-03-22T02:15:49.859Z,0.21
2018-03-22T02:18:18.858Z,0.16
2018-03-22T02:20:47.208Z,0.06
2018-03-22T02:23:15.638Z,0.00
2018-03-22T02:25:44.703Z,-0.01
2018-03-22T02:28:14.008Z,-0.12
2018-03-22T02:30:42.406Z,-0.17
2018-03-22T02:33:11.975Z,-0.21
2018-03-22T02:35:40.291Z,-0.25
2018-03-22T02:38:08.650Z,-0.23
2018-03-22T02:40:36.972Z,-0.28
2018-03-22T02:43:06.087Z,-0.29
2018-03-22T02:45:35.206Z,-0.33
2018-03-22T02:48:03.541Z,-0.32
2018-03-22T02:50:32.684Z,-0.31
2018-03-22T02:53:01.009Z,-0.28
2018-03-22T02:55:30.112Z,-0.27
2018-03-22T02:57:59.205Z,-0.24
2018-03-22T03:00:28.370Z,-0.21
2018-03-22T03:02:56.648Z,-0.14
2018-03-22T03:05:24.976Z,-0.09
2018-03-22T03:07:53.314Z,-0.08
2018-03-22T03:10:22.116Z,-0.05
2018-03-22T03:12:50.630Z,0.01
2018-03-22T03:15:19.028Z,0.05
2018-03-22T03:17:47.338Z,0.09
2018-03-22T03:20:15.692Z,0.09
2018-03-22T03:22:43.998Z,0.08
2018-03-22T03:25:12.311Z,0.06
2018-03-22T03:27:40.671Z,0.05
2018-03-22T03:30:09.779Z,0.06
2018-03-22T03:32:38.158Z,0.05
2018-03-22T03:35:06.464Z,0.06
2018-03-22T03:37:34.814Z,0.11
2018-03-22T03:40:03.162Z,0.18
2018-03-22T03:42:31.512Z,0.22
2018-03-22T03:44:59.832Z,0.26
2018-03-22T03:47:29.038Z,0.33
2018-03-22T03:49:58.598Z,0.40
2018-03-22T03:52:27.161Z,0.44
2018-03-22T03:54:55.531Z,0.47
2018-03-22T03:57:23.855Z,0.52
2018-03-22T03:59:52.225Z,0.55
2018-03-22T04:02:20.550Z,0.59
2018-03-22T04:04:48.917Z,0.55
2018-03-22T04:07:17.995Z,0.54
2018-03-22T04:09:47.468Z,0.56
2018-03-22T04:12:15.832Z,0.56
2018-03-22T04:14:44.202Z,0.62
2018-03-22T04:17:12.509Z,0.68
2018-03-22T04:19:40.835Z,0.71
2018-03-22T04:22:09.568Z,0.74
2018-03-22T04:24:38.643Z,0.78
2018-03-22T04:27:06.977Z,0.80
2018-03-22T04:29:36.105Z,0.83
2018-03-22T04:32:04.823Z,0.88
2018-03-22T04:34:33.898Z,0.94
2018-03-22T04:37:03.336Z,0.99
2018-03-22T04:39:31.646Z,1.05
2018-03-22T04:41:59.989Z,1.11
2018-03-22T04:44:28.329Z,1.21
2018-03-22T04:46:57.789Z,1.21
2018-03-22T04:49:26.915Z,1.21
2018-03-22T04:51:55.290Z,1.26
2018-03-22T04:54:24.335Z,1.28
2018-03-22T04:56:52.679Z,1.31
2018-03-22T04:59:21.024Z,1.34
2018-03-22T05:01:50.125Z,1.37
2018-03-22T05:04:18.468Z,1.42
2018-03-22T05:06:46.778Z,1.35
2018-03-22T05:09:15.110Z,1.37
2018-03-22T05:11:43.444Z,1.35
2018-03-22T05:14:12.708Z,1.40
2018-03-22T05:16:41.042Z,1.38
2018-03-22T05:19:09.374Z,1.38
2018-03-22T05:21:38.763Z,1.42
2018-03-22T05:24:07.827Z,1.50
2018-03-22T05:26:36.159Z,1.44
2018-03-22T05:29:04.464Z,1.49
2018-03-22T05:31:32.820Z,1.50
2018-03-22T05:34:01.188Z,1.52
2018-03-22T05:36:29.600Z,1.60
2018-03-22T05:38:57.956Z,1.58
2018-03-22T05:41:26.285Z,1.63
2018-03-22T05:43:54.641Z,1.67
2018-03-22T05:46:22.945Z,1.88
2018-03-22T05:48:51.264Z,1.88
2018-03-22T05:51:19.615Z,1.84
2018-03-22T05:53:48.753Z,1.93
2018-03-22T05:56:18.028Z,2.00
2018-03-22T05:58:46.389Z,1.99
2018-03-22T06:01:14.730Z,2.01
2018-03-22T06:03:43.060Z,2.11
2018-03-22T06:06:11.480Z,2.26
2018-03-22T06:08:39.801Z,2.31
2018-03-22T06:11:08.172Z,2.27
2018-03-22T06:13:37.279Z,2.37
2018-03-22T06:16:05.733Z,2.32
2018-03-22T06:18:34.062Z,2.51
2018-03-22T06:21:02.392Z,2.63
2018-03-22T06:23:30.728Z,2.78
2018-03-22T06:25:59.128Z,2.74
2018-03-22T06:28:27.440Z,2.78
2018-03-22T06:30:56.520Z,2.93
2018-03-22T06:33:24.875Z,3.06
2018-03-22T06:35:53.332Z,3.49
2018-03-22T06:38:21.769Z,3.78
2018-03-22T06:40:50.873Z,3.97
2018-03-22T06:43:19.962Z,4.13
2018-03-22T06:45:49.064Z,4.20
2018-03-22T06:48:17.379Z,4.19
2018-03-22T06:50:45.720Z,4.43
2018-03-22T06:53:14.802Z,4.85
2018-03-22T06:55:43.142Z,4.73
2018-03-22T06:58:11.480Z,4.37
2018-03-22T07:00:39.846Z,3.90
2018-03-22T07:03:08.219Z,3.89
2018-03-22T07:05:38.658Z,3.86
2018-03-22T07:08:07.000Z,3.84
2018-03-22T07:10:35.301Z,4.10
2018-03-22T07:13:04.399Z,4.40
2018-03-22T07:15:32.760Z,4.33
2018-03-22T07:18:01.272Z,4.31
2018-03-22T07:20:29.586Z,4.69
2018-03-22T07:22:57.947Z,4.88
2018-03-22T07:25:27.117Z,4.74
2018-03-22T07:27:55.386Z,4.80
2018-03-22T07:30:23.738Z,4.92
2018-03-22T07:32:52.096Z,5.06
2018-03-22T07:35:20.443Z,5.16
2018-03-22T07:37:48.793Z,5.14
2018-03-22T07:40:17.973Z,5.04
2018-03-22T07:42:51.707Z,4.89
2018-03-22T07:45:20.035Z,4.54
2018-03-22T07:47:48.334Z,4.83
2018-03-22T07:50:16.759Z,4.82
2018-03-22T07:52:45.075Z,4.99
2018-03-22T07:55:13.419Z,5.09
2018-03-22T07:57:41.774Z,4.99
2018-03-22T08:00:10.166Z,5.21
2018-03-22T08:02:38.877Z,4.92
2018-03-22T08:05:07.300Z,5.02
2018-03-22T08:07:36.388Z,5.09
2018-03-22T08:10:04.707Z,5.09
2018-03-22T08:12:33.063Z,5.03
2018-03-22T08:15:01.407Z,5.08
2018-03-22T08:17:29.713Z,5.40
2018-03-22T08:19:58.067Z,5.74
2018-03-22T08:22:27.156Z,6.06
2018-03-22T08:24:55.539Z,6.12
2018-03-22T08:27:24.634Z,6.38
2018-03-22T08:29:53.753Z,5.98
2018-03-22T08:32:22.091Z,6.23
2018-03-22T08:34:50.433Z,6.33
2018-03-22T08:37:18.774Z,6.33
2018-03-22T08:39:47.904Z,6.05
2018-03-22T08:42:16.265Z,6.06
2018-03-22T08:44:44.611Z,6.20
2018-03-22T08:47:13.757Z,6.17
2018-03-22T08:49:42.188Z,6.25
2018-03-22T08:52:11.301Z,6.45
2018-03-22T08:54:39.633Z,7.05
2018-03-22T08:57:07.951Z,7.07
2018-03-22T08:59:37.066Z,7.66
2018-03-22T09:02:05.390Z,7.45
2018-03-22T09:04:33.733Z,7.05
2018-03-22T09:07:02.071Z,7.16
2018-03-22T09:09:31.222Z,6.73
2018-03-22T09:11:59.592Z,6.04
2018-03-22T09:14:27.890Z,6.46
2018-03-22T09:16:56.239Z,6.68
2018-03-22T09:19:25.333Z,7.11
2018-03-22T09:21:54.084Z,7.05
2018-03-22T09:24:23.162Z,7.54
2018-03-22T09:26:57.105Z,7.55
2018-03-22T09:29:25.493Z,7.10
2018-03-22T09:31:53.745Z,7.12
2018-03-22T09:34:22.874Z,6.80
2018-03-22T09:36:51.237Z,6.71
2018-03-22T09:39:19.623Z,6.53
2018-03-22T09:41:48.030Z,6.49
2018-03-22T09:44:16.347Z,6.34
2018-03-22T09:46:45.452Z,6.29
2018-03-22T09:49:13.777Z,6.30
2018-03-22T09:51:42.098Z,6.60
2018-03-22T09:54:11.166Z,6.61
2018-03-22T09:56:39.938Z,6.25
2018-03-22T09:59:08.330Z,6.28
2018-03-22T10:01:36.652Z,6.68
2018-03-22T10:04:04.991Z,6.65
2018-03-22T10:06:33.356Z,6.36
2018-03-22T10:09:01.682Z,5.96
2018-03-22T10:11:30.046Z,5.98
2018-03-22T10:13:59.150Z,5.61
2018-03-22T10:16:28.640Z,5.78
2018-03-22T10:18:57.070Z,5.41
2018-03-22T10:21:25.404Z,4.93
2018-03-22T10:23:54.480Z,4.61
2018-03-22T10:26:22.843Z,4.99
2018-03-22T10:28:51.194Z,4.91
2018-03-22T10:31:19.510Z,4.51
2018-03-22T10:33:48.258Z,4.73
2018-03-22T10:36:16.836Z,4.65
2018-03-22T10:38:45.182Z,4.74
2018-03-22T10:41:14.273Z,4.93
2018-03-22T10:43:43.394Z,5.22
2018-03-22T10:46:11.732Z,5.76
2018-03-22T10:48:40.055Z,6.40
2018-03-22T10:51:08.423Z,6.83
2018-03-22T10:53:36.744Z,6.61
2018-03-22T10:56:05.078Z,6.82
2018-03-22T10:58:33.590Z,6.86
2018-03-22T11:01:07.458Z,6.71
2018-03-22T11:03:41.450Z,6.42
2018-03-22T11:06:10.536Z,6.48
2018-03-22T11:08:38.990Z,6.55
2018-03-22T11:11:07.737Z,6.81
2018-03-22T11:13:36.922Z,6.75
2018-03-22T11:16:05.291Z,5.78
2018-03-22T11:18:33.616Z,6.00
2018-03-22T11:21:01.982Z,5.79
2018-03-22T11:23:31.118Z,5.46
2018-03-22T11:25:59.482Z,5.79
2018-03-22T11:28:27.807Z,6.57
2018-03-22T11:30:56.161Z,6.52
2018-03-22T11:33:25.318Z,6.53
2018-03-22T11:35:53.650Z,6.41
2018-03-22T11:38:21.988Z,6.05
2018-03-22T11:40:50.394Z,5.87
2018-03-22T11:43:19.527Z,6.02
2018-03-22T11:45:47.850Z,5.72
2018-03-22T11:48:16.225Z,5.84
2018-03-22T11:50:44.597Z,5.58
2018-03-22T11:53:12.933Z,5.43
2018-03-22T11:55:41.286Z,5.57
2018-03-22T11:58:10.420Z,5.86
2018-03-22T12:00:38.770Z,6.02
2018-03-22T12:03:07.126Z,5.48
2018-03-22T12:05:35.450Z,5.18
2018-03-22T12:08:03.810Z,5.18
2018-03-22T12:10:32.169Z,5.01
2018-03-22T12:13:01.372Z,4.65
2018-03-22T12:15:29.734Z,5.10
2018-03-22T12:17:58.821Z,5.43
2018-03-22T12:20:27.165Z,5.71
2018-03-22T12:22:55.482Z,5.26
2018-03-22T12:25:24.606Z,5.01
2018-03-22T12:27:52.968Z,4.91
2018-03-22T12:30:22.098Z,4.81
2018-03-22T12:32:50.514Z,4.78
2018-03-22T12:35:18.870Z,5.02
2018-03-22T12:37:47.237Z,4.99
2018-03-22T12:40:15.551Z,4.97
2018-03-22T12:42:43.894Z,4.94
2018-03-22T12:45:12.213Z,5.34
2018-03-22T12:47:40.577Z,5.32
2018-03-22T12:50:08.912Z,5.54
2018-03-22T12:52:37.275Z,5.11
2018-03-22T12:55:05.603Z,5.02
2018-03-22T12:57:33.929Z,4.98
2018-03-22T13:00:02.309Z,4.87
2018-03-22T13:02:31.391Z,4.87
2018-03-22T13:05:00.515Z,4.90
2018-03-22T13:07:28.984Z,4.89
2018-03-22T13:09:57.369Z,4.84
2018-03-22T13:12:25.715Z,4.89
2018-03-22T13:14:54.837Z,5.09
2018-03-22T13:17:23.201Z,4.84
2018-03-22T13:19:51.946Z,4.91
2018-03-22T13:22:20.305Z,4.86
2018-03-22T13:24:49.406Z,5.04
2018-03-22T13:27:17.747Z,4.99
2018-03-22T13:29:46.073Z,5.19
2018-03-22T13:32:14.433Z,5.12
2018-03-22T13:34:42.787Z,5.27
2018-03-22T13:37:12.032Z,5.51
2018-03-22T13:39:40.413Z,5.17
2018-03-22T13:42:08.727Z,5.28
2018-03-22T13:44:37.064Z,5.03
2018-03-22T13:47:05.389Z,5.14
2018-03-22T13:49:33.813Z,4.91
2018-03-22T13:52:02.299Z,5.08
2018-03-22T13:54:30.674Z,5.05
2018-03-22T13:56:59.804Z,4.95
2018-03-22T13:59:28.153Z,4.81
2018-03-22T14:01:56.750Z,4.87
2018-03-22T14:04:25.085Z,4.69
2018-03-22T14:06:53.456Z,4.71
2018-03-22T14:09:21.827Z,4.90
2018-03-22T14:11:50.158Z,4.75
2018-03-22T14:14:18.528Z,4.66
2018-03-22T14:16:46.856Z,4.77
2018-03-22T14:19:15.224Z,4.90
2018-03-22T14:21:43.594Z,4.71
2018-03-22T14:24:12.314Z,4.70
2018-03-22T14:26:40.666Z,4.57
2018-03-22T14:29:09.642Z,4.45
2018-03-22T14:31:38.208Z,4.48
2018-03-22T14:34:06.577Z,4.50
2018-03-22T14:36:34.890Z,4.41
2018-03-22T14:39:03.306Z,4.38
2018-03-22T14:41:31.643Z,4.41
2018-03-22T14:44:00.769Z,4.35
2018-03-22T14:46:29.086Z,4.34
2018-03-22T14:48:57.497Z,4.29
2018-03-22T14:51:25.849Z,4.27
2018-03-22T14:53:54.222Z,4.27
2018-03-22T14:56:22.543Z,3.95
2018-03-22T14:58:50.872Z,3.97
2018-03-22T15:01:20.047Z,3.89
2018-03-22T15:03:48.387Z,3.92
2018-03-22T15:06:16.768Z,3.88
2018-03-22T15:08:45.769Z,3.95
2018-03-22T15:11:14.128Z,3.76
2018-03-22T15:13:43.758Z,3.90
2018-03-22T15:16:12.099Z,3.94
2018-03-22T15:18:41.219Z,3.93
2018-03-22T15:21:09.567Z,3.89
2018-03-22T15:23:38.658Z,3.74
2018-03-22T15:26:07.146Z,3.74
2018-03-22T15:28:36.285Z,3.59
2018-03-22T15:31:04.686Z,3.70
2018-03-22T15:33:33.079Z,3.78
2018-03-22T15:36:01.472Z,3.78
2018-03-22T15:38:30.587Z,3.74
2018-03-22T15:40:59.748Z,3.66
2018-03-22T15:43:28.174Z,3.59
2018-03-22T15:45:56.556Z,3.55
2018-03-22T15:48:24.908Z,3.46
2018-03-22T15:50:54.039Z,3.54
2018-03-22T15:53:22.513Z,3.52
2018-03-22T15:55:51.653Z,3.51
2018-03-22T15:58:20.806Z,3.48
2018-03-22T16:00:49.167Z,3.39
2018-03-22T16:03:17.539Z,3.40
2018-03-22T16:05:46.636Z,3.44
2018-03-22T16:08:16.524Z,3.46
2018-03-22T16:10:45.520Z,3.52
2018-03-22T16:13:13.834Z,3.47
2018-03-22T16:15:42.194Z,3.41
2018-03-22T16:18:10.546Z,3.38
2018-03-22T16:20:38.894Z,3.36
2018-03-22T16:23:07.257Z,3.39
2018-03-22T16:25:35.623Z,3.33
2018-03-22T16:28:03.956Z,3.42
2018-03-22T16:30:32.303Z,3.36
2018-03-22T16:33:00.645Z,3.39
2018-03-22T16:35:29.229Z,3.34
2018-03-22T16:37:57.593Z,3.39
2018-03-22T16:40:26.664Z,3.31
2018-03-22T16:42:55.060Z,3.26
2018-03-22T16:45:24.155Z,3.24
2018-03-22T16:47:53.280Z,3.30
2018-03-22T16:50:21.620Z,3.21
2018-03-22T16:52:49.970Z,3.19
2018-03-22T16:55:18.311Z,3.20
2018-03-22T16:57:46.688Z,3.20
2018-03-22T17:00:15.187Z,3.19
2018-03-22T17:02:43.578Z,3.14
2018-03-22T17:05:11.963Z,3.10
2018-03-22T17:07:41.254Z,3.14
2018-03-22T17:10:10.573Z,3.20
2018-03-22T17:12:38.947Z,3.17
2018-03-22T17:15:07.407Z,3.18
2018-03-22T17:17:37.637Z,3.26
2018-03-22T17:20:06.740Z,3.23
2018-03-22T17:22:35.062Z,3.15
2018-03-22T17:25:04.548Z,3.18
2018-03-22T17:27:32.888Z,3.14
2018-03-22T17:30:01.523Z,3.20
2018-03-22T17:32:30.641Z,3.17
2018-03-22T17:34:59.077Z,3.13
2018-03-22T17:37:27.421Z,3.15
2018-03-22T17:39:57.014Z,3.18
2018-03-22T17:42:25.438Z,3.16
2018-03-22T17:44:53.833Z,3.18
2018-03-22T17:47:23.787Z,3.20
2018-03-22T17:49:53.916Z,3.20
2018-03-22T17:52:22.330Z,3.13
2018-03-22T17:54:50.814Z,3.04
2018-03-22T17:57:19.664Z,3.21
2018-03-22T17:59:49.839Z,3.22
2018-03-22T18:02:19.650Z,3.22
2018-03-22T18:04:48.881Z,3.25
2018-03-22T18:07:27.268Z,3.26
2018-03-22T18:09:56.546Z,3.21
2018-03-22T18:12:25.035Z,3.21
2018-03-22T18:14:55.264Z,3.20
2018-03-22T18:17:25.631Z,3.17
2018-03-22T18:19:59.242Z,3.02
2018-03-22T18:22:29.014Z,3.18
2018-03-22T18:24:57.841Z,3.20
2018-03-22T18:27:28.637Z,3.08
2018-03-22T18:29:58.515Z,3.13
2018-03-22T18:32:30.172Z,3.27
2018-03-22T18:35:01.707Z,3.30
2018-03-22T18:37:38.983Z,3.33
2018-03-22T18:40:16.253Z,3.39
2018-03-22T18:42:49.262Z,3.35
2018-03-22T18:45:18.849Z,3.35
2018-03-22T18:47:47.278Z,3.35
2018-03-22T18:50:16.895Z,3.33
2018-03-22T18:52:46.026Z,3.33
2018-03-22T18:55:14.412Z,3.30
2018-03-22T18:57:44.437Z,3.35
2018-03-22T19:00:13.662Z,3.42
2018-03-22T19:02:42.162Z,3.35
2018-03-22T19:05:11.376Z,3.36
2018-03-22T19:07:41.818Z,3.31
2018-03-22T19:13:07.647Z,3.37
2018-03-22T19:15:39.135Z,3.41
2018-03-22T19:18:07.592Z,3.47
2018-03-22T19:20:36.012Z,3.50
2018-03-22T19:23:06.014Z,3.12
2018-03-22T19:25:35.211Z,3.50
2018-03-22T19:28:09.395Z,3.37
2018-03-22T19:30:37.903Z,3.43
2018-03-22T19:33:07.650Z,3.45
2018-03-22T19:35:38.001Z,3.47
2018-03-22T19:38:08.038Z,3.48
2018-03-22T19:40:38.969Z,3.47
2018-03-22T19:43:09.300Z,3.44
2018-03-22T19:45:39.416Z,3.49
2018-03-22T19:48:10.003Z,3.48
2018-03-22T19:50:41.151Z,3.44
2018-03-22T19:53:11.240Z,3.43
2018-03-22T19:58:42.985Z,3.41
2018-03-22T20:04:10.962Z,3.48
2018-03-22T20:14:16.266Z,3.45
2018-03-22T20:17:13.344Z,3.42
2018-03-22T20:32:18.350Z,3.36
2018-03-22T20:34:52.307Z,3.36
2018-03-22T20:37:29.540Z,3.38
2018-03-22T20:40:29.858Z,3.42
2018-03-22T20:43:01.337Z,3.44
2018-03-22T20:45:29.778Z,3.41
2018-03-22T20:47:59.042Z,3.45
2018-03-22T20:50:28.192Z,3.44
2018-03-22T20:52:56.504Z,3.43
2018-03-22T20:55:24.889Z,3.44
2018-03-22T20:58:06.720Z,3.45
2018-03-22T21:00:35.104Z,3.44
2018-03-22T21:03:03.505Z,3.49
2018-03-22T21:05:32.677Z,3.54
2018-03-22T21:08:01.043Z,3.54
2018-03-22T21:10:29.429Z,3.51
2018-03-22T21:12:57.764Z,3.48
2018-03-22T21:15:26.287Z,3.50
2018-03-22T21:17:54.926Z,3.52
2018-03-22T21:20:25.191Z,3.51
2018-03-22T21:22:56.609Z,3.50
2018-03-22T21:25:25.751Z,3.51
2018-03-22T21:27:57.053Z,3.57
2018-03-22T21:30:26.665Z,3.48
2018-03-22T21:32:56.852Z,3.62
2018-03-22T21:35:27.677Z,3.53
2018-03-22T21:37:57.805Z,3.53
2018-03-22T21:40:28.584Z,3.54
2018-03-22T21:42:58.575Z,3.57
2018-03-22T21:45:29.257Z,3.60
2018-03-22T21:47:59.179Z,3.57
2018-03-22T21:50:50.718Z,3.56
2018-03-22T21:53:19.053Z,3.54
2018-03-22T21:55:48.193Z,3.54
2018-03-22T21:58:16.546Z,3.53
2018-03-22T22:00:44.891Z,3.57
2018-03-22T22:03:13.996Z,3.55
2018-03-22T22:05:42.405Z,3.54
2018-03-22T22:08:10.735Z,3.50
2018-03-22T22:10:39.855Z,3.58
2018-03-22T22:13:08.207Z,3.59
2018-03-22T22:15:36.585Z,3.59
2018-03-22T22:18:06.591Z,3.67
2018-03-22T22:20:35.023Z,3.58
2018-03-22T22:23:04.759Z,3.64
2018-03-22T22:25:35.746Z,3.60
2018-03-22T22:28:05.517Z,3.63
2018-03-22T22:30:36.697Z,3.61
2018-03-22T22:33:06.591Z,3.54
2018-03-22T22:35:36.567Z,3.54
2018-03-22T22:38:07.461Z,3.54
2018-03-22T22:40:37.547Z,3.56
2018-03-22T22:43:08.765Z,3.57
2018-03-22T22:45:38.496Z,3.65
2018-03-22T22:48:08.543Z,3.66
2018-03-22T22:50:39.580Z,3.66
2018-03-22T22:53:09.501Z,3.65
2018-03-22T22:55:40.814Z,3.65
2018-03-22T22:58:10.733Z,3.67
2018-03-22T23:00:40.567Z,3.65
2018-03-22T23:03:11.406Z,3.70
2018-03-22T23:05:41.013Z,3.72
2018-03-22T23:08:12.909Z,3.72
2018-03-22T23:10:42.546Z,3.69
2018-03-22T23:13:12.550Z,3.72
2018-03-22T23:15:43.616Z,3.80
2018-03-22T23:18:13.627Z,3.70
2018-03-22T23:20:51.920Z,3.78
2018-03-22T23:23:20.274Z,3.79
2018-03-22T23:25:48.619Z,3.69
2018-03-22T23:28:16.965Z,3.67
2018-03-22T23:30:45.906Z,3.65
2018-03-22T23:33:16.762Z,3.67
2018-03-22T23:35:46.616Z,3.66
2018-03-22T23:38:16.486Z,3.67
2018-03-22T23:40:47.556Z,3.68
2018-03-22T23:43:17.477Z,3.66
2018-03-22T23:45:48.710Z,3.67
2018-03-22T23:48:18.444Z,3.63
2018-03-22T23:50:47.904Z,3.64
2018-03-22T23:53:19.804Z,3.65
2018-03-22T23:55:49.520Z,3.67
2018-03-22T23:58:20.696Z,3.83
